createdAt,value
2019-03-02T00:00:04.781Z,88.68
2019-03-02T00:01:15.967Z,88.78
2019-03-02T00:02:26.823Z,88.68
2019-03-02T00:03:37.467Z,89.06
2019-03-02T00:04:49.384Z,89.15
2019-03-02T00:06:00.897Z,88.78
2019-03-02T00:07:13.825Z,88.87
2019-03-02T00:08:25.140Z,88.49
2019-03-02T00:09:37.044Z,88.68
2019-03-02T00:10:48.265Z,88.4
2019-03-02T00:11:59.118Z,88.59
2019-03-02T00:13:10.047Z,88.59
2019-03-02T00:14:21.762Z,88.78
2019-03-02T00:15:33.288Z,88.68
2019-03-02T00:16:45.845Z,89.34
2019-03-02T00:17:56.673Z,89.06
2019-03-02T00:19:09.313Z,89.53
2019-03-02T00:20:20.640Z,89.53
2019-03-02T00:21:33.914Z,89.06
2019-03-02T00:22:46.126Z,89.53
2019-03-02T00:23:56.831Z,89.63
2019-03-02T00:25:06.817Z,89.72
2019-03-02T00:26:16.769Z,89.72
2019-03-02T00:27:26.715Z,89.34
2019-03-02T00:28:38.027Z,89.63
2019-03-02T00:29:48.895Z,89.25
2019-03-02T00:31:00.386Z,89.82
2019-03-02T00:32:12.197Z,90.29
2019-03-02T00:33:23.137Z,89.91
2019-03-02T00:34:34.492Z,90.2
2019-03-02T00:35:46.202Z,90.1
2019-03-02T00:36:58.555Z,90.48
2019-03-02T00:38:11.349Z,90.48
2019-03-02T00:39:22.300Z,90.95
2019-03-02T00:40:33.939Z,91.24
2019-03-02T00:41:44.669Z,91.14
2019-03-02T00:42:55.251Z,91.14
2019-03-02T00:44:06.302Z,91.14
2019-03-02T00:45:17.738Z,90.95
2019-03-02T00:46:27.683Z,91.05
2019-03-02T00:47:38.675Z,91.24
2019-03-02T00:48:49.437Z,91.43
2019-03-02T00:50:03.171Z,91.9
2019-03-02T00:51:13.696Z,91.33
2019-03-02T00:52:25.930Z,91.9
2019-03-02T00:53:38.018Z,91.71
2019-03-02T00:54:58.062Z,91.62
2019-03-02T00:56:10.235Z,91.33
2019-03-02T00:57:21.170Z,91.62
2019-03-02T00:58:32.212Z,91.43
2019-03-02T00:59:42.517Z,91.81
2019-03-02T01:00:55.445Z,91.62
2019-03-02T01:02:07.791Z,91.9
2019-03-02T01:03:18.242Z,92
2019-03-02T01:04:29.177Z,91.9
2019-03-02T01:05:39.646Z,92.09
2019-03-02T01:06:51.189Z,91.81
2019-03-02T01:08:02.369Z,92
2019-03-02T01:09:15.125Z,91.33
2019-03-02T01:10:25.742Z,91.43
2019-03-02T01:11:36.606Z,91.62
2019-03-02T01:12:47.711Z,92
2019-03-02T01:13:59.297Z,91.71
2019-03-02T01:15:10.931Z,92
2019-03-02T01:16:22.472Z,92.47
2019-03-02T01:17:34.159Z,92.38
2019-03-02T01:18:44.909Z,92.57
2019-03-02T01:19:56.069Z,92.66
2019-03-02T01:21:07.389Z,92.09
2019-03-02T01:22:19.011Z,92.38
2019-03-02T01:23:30.050Z,92.09
2019-03-02T01:24:41.482Z,92.09
2019-03-02T01:25:52.168Z,92.09
2019-03-02T01:27:02.781Z,91.71
2019-03-02T01:28:13.105Z,92.09
2019-03-02T01:29:23.046Z,92.28
2019-03-02T01:30:33.386Z,92.19
2019-03-02T01:31:44.203Z,92.57
2019-03-02T01:32:55.311Z,92.28
2019-03-02T01:34:08.370Z,92.19
2019-03-02T01:35:19.995Z,92.28
2019-03-02T01:36:32.204Z,92.19
2019-03-02T01:37:46.413Z,92.38
2019-03-02T01:38:57.342Z,92.28
2019-03-02T01:40:08.563Z,92.28
2019-03-02T01:41:20.328Z,91.71
2019-03-02T01:42:32.217Z,91.81
2019-03-02T01:43:43.709Z,92
2019-03-02T01:44:53.917Z,91.9
2019-03-02T01:46:05.940Z,91.81
2019-03-02T01:47:19.181Z,92
2019-03-02T01:48:30.334Z,91.9
2019-03-02T01:49:40.497Z,92.09
2019-03-02T01:50:51.281Z,91.81
2019-03-02T01:52:01.523Z,91.81
2019-03-02T01:53:12.400Z,91.81
2019-03-02T01:54:23.837Z,91.33
2019-03-02T01:55:34.457Z,91.62
2019-03-02T01:56:45.093Z,92
2019-03-02T01:57:55.702Z,91.71
2019-03-02T01:59:06.408Z,91.81
2019-03-02T02:00:16.996Z,91.9
2019-03-02T02:01:28.218Z,91.71
2019-03-02T02:02:38.689Z,91.81
2019-03-02T02:03:49.679Z,91.71
2019-03-02T02:05:00.718Z,91.71
2019-03-02T02:06:11.190Z,91.62
2019-03-02T02:07:21.784Z,91.71
2019-03-02T02:08:32.391Z,91.9
2019-03-02T02:09:43.129Z,92
2019-03-02T02:10:53.068Z,91.9
2019-03-02T02:12:02.776Z,92
2019-03-02T02:13:12.725Z,91.9
2019-03-02T02:14:22.752Z,91.81
2019-03-02T02:15:32.857Z,91.71
2019-03-02T02:16:44.315Z,92.28
2019-03-02T02:17:55.233Z,92.19
2019-03-02T02:19:05.775Z,92.57
2019-03-02T02:20:17.044Z,93.32
2019-03-02T02:21:29.120Z,93.23
2019-03-02T02:22:40.427Z,93.99
2019-03-02T02:23:52.353Z,93.61
2019-03-02T02:25:03.084Z,93.42
2019-03-02T02:26:13.867Z,93.8
2019-03-02T02:27:25.812Z,93.99
2019-03-02T02:28:35.914Z,93.8
2019-03-02T02:29:46.738Z,93.8
2019-03-02T02:31:01.570Z,94.27
2019-03-02T02:32:19.051Z,94.46
2019-03-02T02:33:33.455Z,94.27
2019-03-02T02:34:50.052Z,95.03
2019-03-02T02:36:08.282Z,94.89
2019-03-02T02:37:25.774Z,95.26
2019-03-02T02:38:44.048Z,95.26
2019-03-02T02:40:01.701Z,95.26
2019-03-02T02:41:25.035Z,95.45
2019-03-02T02:42:38.949Z,95.45
2019-03-02T02:43:54.117Z,95.36
2019-03-02T02:45:10.956Z,95.55
2019-03-02T02:46:27.278Z,95.36
2019-03-02T02:47:50.159Z,95.93
2019-03-02T02:49:05.218Z,95.64
2019-03-02T02:50:17.613Z,95.83
2019-03-02T02:51:36.833Z,95.83
2019-03-02T02:52:54.114Z,95.45
2019-03-02T02:54:11.621Z,95.12
2019-03-02T02:55:28.224Z,95.45
2019-03-02T02:56:45.627Z,95.45
2019-03-02T02:58:01.837Z,95.55
2019-03-02T02:59:19.713Z,95.69
2019-03-02T03:00:29.701Z,95.55
2019-03-02T03:01:40.785Z,96.02
2019-03-02T03:02:50.775Z,95.55
2019-03-02T03:04:02.143Z,95.64
2019-03-02T03:05:15.088Z,95.83
2019-03-02T03:06:28.397Z,95.64
2019-03-02T03:07:40.414Z,96.12
2019-03-02T03:09:05.103Z,96.21
2019-03-02T03:10:23.245Z,96.12
2019-03-02T03:11:43.525Z,96.02
2019-03-02T03:12:56.649Z,96.02
2019-03-02T03:14:14.901Z,96.21
2019-03-02T03:15:35.929Z,96.4
2019-03-02T03:16:49.340Z,96.5
2019-03-02T03:18:01.850Z,96.21
2019-03-02T03:19:20.282Z,96.4
2019-03-02T03:20:38.064Z,96.4
2019-03-02T03:21:56.110Z,97.06
2019-03-02T03:23:14.462Z,96.31
2019-03-02T03:24:31.816Z,96.4
2019-03-02T03:25:55.870Z,96.97
2019-03-02T03:27:08.818Z,96.88
2019-03-02T03:28:21.122Z,97.35
2019-03-02T03:29:37.941Z,97.82
2019-03-02T03:30:55.232Z,97.82
2019-03-02T03:32:14.016Z,97.54
2019-03-02T03:33:24.182Z,97.63
2019-03-02T03:34:50.413Z,97.54
2019-03-02T03:36:00.208Z,97.35
2019-03-02T03:37:15.092Z,97.44
2019-03-02T03:38:29.213Z,97.35
2019-03-02T03:39:41.711Z,97.73
2019-03-02T03:40:54.152Z,97.44
2019-03-02T03:42:12.119Z,97.63
2019-03-02T03:43:30.124Z,97.73
2019-03-02T03:44:49.770Z,98.01
2019-03-02T03:46:06.503Z,98.11
2019-03-02T03:47:24.480Z,98.3
2019-03-02T03:48:37.109Z,98.11
2019-03-02T03:49:46.802Z,98.49
2019-03-02T03:50:56.558Z,98.68
2019-03-02T03:52:11.733Z,98.58
2019-03-02T03:53:26.359Z,98.86
2019-03-02T03:54:45.366Z,98.49
2019-03-02T03:56:03.181Z,98.39
2019-03-02T03:57:16.992Z,98.11
2019-03-02T03:58:29.237Z,98.58
2019-03-02T03:59:45.430Z,98.49
2019-03-02T04:01:03.803Z,98.77
2019-03-02T04:02:22.423Z,98.86
2019-03-02T04:03:39.800Z,98.86
2019-03-02T04:04:54.909Z,99.71
2019-03-02T04:06:13.297Z,99.43
2019-03-02T04:07:30.016Z,99.43
2019-03-02T04:08:39.978Z,99.33
2019-03-02T04:09:50.757Z,99.52
2019-03-02T04:11:06.513Z,99.71
2019-03-02T04:12:19.724Z,99.43
2019-03-02T04:13:32.219Z,99.15
2019-03-02T04:14:52.128Z,99.52
2019-03-02T04:16:08.639Z,99.43
2019-03-02T04:17:25.326Z,99.33
2019-03-02T04:18:43.043Z,99.43
2019-03-02T04:20:01.362Z,99.71
2019-03-02T04:21:23.184Z,99.81
2019-03-02T04:22:39.800Z,99.62
2019-03-02T04:23:56.064Z,99.43
2019-03-02T04:25:17.806Z,99.99
2019-03-02T04:26:36.343Z,99.52
2019-03-02T04:27:53.065Z,99.52
2019-03-02T04:29:11.791Z,99.81
2019-03-02T04:30:33.218Z,99.71
2019-03-02T04:31:50.614Z,99.71
2019-03-02T04:33:07.774Z,99.71
2019-03-02T04:34:23.166Z,99.9
2019-03-02T04:35:36.460Z,99.62
2019-03-02T04:36:49.902Z,99.81
2019-03-02T04:38:03.288Z,99.52
2019-03-02T04:39:16.291Z,99.62
2019-03-02T04:40:31.174Z,99.9
2019-03-02T04:41:41.848Z,99.99
2019-03-02T04:42:52.806Z,99.99
2019-03-02T04:44:02.488Z,99.99
2019-03-02T04:45:12.419Z,99.99
2019-03-02T04:46:22.362Z,99.99
2019-03-02T04:47:32.036Z,99.99
2019-03-02T04:48:42.468Z,99.99
2019-03-02T04:49:53.919Z,99.99
2019-03-02T04:51:05.112Z,99.99
2019-03-02T04:52:17.016Z,99.99
2019-03-02T04:53:28.273Z,99.99
2019-03-02T04:54:40.154Z,99.99
2019-03-02T04:55:51.144Z,99.99
2019-03-02T04:57:02.215Z,99.99
2019-03-02T04:58:14.512Z,99.99
2019-03-02T04:59:25.432Z,99.99
2019-03-02T05:00:35.258Z,99.99
2019-03-02T05:01:48.353Z,99.99
2019-03-02T05:02:58.574Z,99.99
2019-03-02T05:04:08.264Z,99.99
2019-03-02T05:05:18.201Z,99.99
2019-03-02T05:06:28.136Z,99.99
2019-03-02T05:07:37.816Z,99.99
2019-03-02T05:08:47.844Z,99.99
2019-03-02T05:09:57.814Z,99.99
2019-03-02T05:11:07.830Z,99.99
2019-03-02T05:12:17.947Z,99.99
2019-03-02T05:13:30.963Z,99.99
2019-03-02T05:14:42.698Z,99.99
2019-03-02T05:15:54.803Z,99.99
2019-03-02T05:17:07.219Z,99.99
2019-03-02T05:18:20.572Z,99.99
2019-03-02T05:19:31.623Z,99.99
2019-03-02T05:20:43.565Z,99.99
2019-03-02T05:21:53.509Z,99.99
2019-03-02T05:23:03.194Z,99.99
2019-03-02T05:24:13.131Z,99.99
2019-03-02T05:25:23.061Z,99.99
2019-03-02T05:26:32.996Z,99.99
2019-03-02T05:27:42.946Z,99.99
2019-03-02T05:28:52.628Z,99.99
2019-03-02T05:30:02.311Z,99.99
2019-03-02T05:31:13.813Z,99.99
2019-03-02T05:32:23.896Z,99.99
2019-03-02T05:33:33.607Z,99.99
2019-03-02T05:34:43.553Z,99.99
2019-03-02T05:35:53.919Z,99.99
2019-03-02T05:37:05.479Z,99.99
2019-03-02T05:38:17.731Z,99.99
2019-03-02T05:39:27.423Z,99.99
2019-03-02T05:40:37.124Z,99.99
2019-03-02T05:41:46.808Z,99.99
2019-03-02T05:42:58.458Z,99.99
2019-03-02T05:44:08.162Z,99.99
2019-03-02T05:45:20.332Z,99.99
2019-03-02T05:46:32.239Z,99.99
2019-03-02T05:47:41.930Z,99.99
2019-03-02T05:48:51.649Z,99.99
2019-03-02T05:50:01.081Z,99.99
2019-03-02T05:51:10.531Z,99.99
2019-03-02T05:52:21.143Z,99.99
2019-03-02T05:53:32.741Z,99.99
2019-03-02T05:54:44.104Z,99.99
2019-03-02T05:55:56.323Z,99.99
2019-03-02T05:57:07.612Z,99.99
2019-03-02T05:58:19.266Z,99.99
2019-03-02T05:59:30.001Z,99.99
2019-03-02T06:00:41.128Z,99.99
2019-03-02T06:01:51.043Z,99.99
2019-03-02T06:03:00.860Z,99.99
2019-03-02T06:04:10.814Z,99.99
2019-03-02T06:05:24.994Z,99.99
2019-03-02T06:06:34.690Z,99.99
2019-03-02T06:07:44.450Z,99.99
2019-03-02T06:08:56.794Z,99.99
2019-03-02T06:10:06.780Z,99.99
2019-03-02T06:11:18.936Z,99.99
2019-03-02T06:12:28.380Z,99.99
2019-03-02T06:13:38.331Z,99.99
2019-03-02T06:14:48.297Z,99.99
2019-03-02T06:15:58.232Z,99.99
2019-03-02T06:17:07.932Z,99.99
2019-03-02T06:18:17.875Z,99.99
2019-03-02T06:19:27.799Z,99.99
2019-03-02T06:20:39.093Z,99.99
2019-03-02T06:21:49.676Z,99.99
2019-03-02T06:22:59.617Z,99.99
2019-03-02T06:24:09.313Z,99.99
2019-03-02T06:25:23.837Z,99.99
2019-03-02T06:26:35.341Z,99.99
2019-03-02T06:27:49.395Z,99.99
2019-03-02T06:29:00.336Z,99.99
2019-03-02T06:30:11.121Z,99.99
2019-03-02T06:31:21.576Z,99.99
2019-03-02T06:32:33.569Z,99.99
2019-03-02T06:33:46.426Z,99.99
2019-03-02T06:34:58.468Z,99.99
2019-03-02T06:36:11.421Z,99.99
2019-03-02T06:37:22.532Z,99.99
2019-03-02T06:38:34.459Z,99.99
2019-03-02T06:39:46.911Z,99.99
2019-03-02T06:41:00.547Z,99.99
2019-03-02T06:42:12.478Z,99.99
2019-03-02T06:43:24.248Z,99.99
2019-03-02T06:44:36.737Z,99.99
2019-03-02T06:45:46.793Z,99.99
2019-03-02T06:46:58.222Z,99.99
2019-03-02T06:48:12.209Z,99.99
2019-03-02T06:49:23.343Z,99.99
2019-03-02T06:50:35.602Z,99.99
2019-03-02T06:51:47.212Z,99.99
2019-03-02T06:53:01.376Z,99.99
2019-03-02T06:54:14.977Z,99.99
2019-03-02T06:55:27.887Z,99.99
2019-03-02T06:56:40.882Z,99.99
2019-03-02T06:58:00.182Z,99.99
2019-03-02T06:59:10.119Z,99.99
2019-03-02T07:00:20.057Z,99.99
2019-03-02T07:01:29.515Z,99.99
2019-03-02T07:02:39.441Z,99.99
2019-03-02T07:03:49.378Z,99.99
2019-03-02T07:05:00.301Z,99.99
2019-03-02T07:06:11.613Z,99.99
2019-03-02T07:07:24.358Z,99.99
2019-03-02T07:08:36.328Z,99.99
2019-03-02T07:09:47.843Z,99.99
2019-03-02T07:11:00.440Z,99.99
2019-03-02T07:12:11.955Z,99.99
2019-03-02T07:13:24.712Z,99.99
2019-03-02T07:14:34.554Z,99.99
2019-03-02T07:15:47.167Z,99.99
2019-03-02T07:16:58.427Z,99.99
2019-03-02T07:18:10.299Z,99.99
2019-03-02T07:19:20.239Z,99.99
2019-03-02T07:20:30.665Z,99.99
2019-03-02T07:21:43.961Z,99.99
2019-03-02T07:22:54.897Z,99.99
2019-03-02T07:24:04.588Z,99.99
2019-03-02T07:25:14.740Z,99.99
2019-03-02T07:26:24.710Z,99.99
2019-03-02T07:27:34.653Z,99.99
2019-03-02T07:28:45.378Z,99.99
2019-03-02T07:29:56.157Z,99.99
2019-03-02T07:31:06.110Z,99.99
2019-03-02T07:32:16.078Z,99.99
2019-03-02T07:33:26.033Z,99.99
2019-03-02T07:34:35.471Z,99.99
2019-03-02T07:35:51.627Z,99.99
2019-03-02T07:37:05.682Z,99.99
2019-03-02T07:38:20.247Z,99.99
2019-03-02T07:39:36.464Z,99.99
2019-03-02T07:40:48.020Z,99.99
2019-03-02T07:42:00.462Z,99.99
2019-03-02T07:43:12.267Z,99.99
2019-03-02T07:44:24.767Z,99.99
2019-03-02T07:45:37.483Z,99.99
2019-03-02T07:46:50.514Z,99.99
2019-03-02T07:48:02.731Z,99.99
2019-03-02T07:49:15.543Z,99.99
2019-03-02T07:50:29.690Z,99.99
2019-03-02T07:51:41.417Z,99.99
2019-03-02T07:52:52.903Z,99.99
2019-03-02T07:54:05.910Z,99.99
2019-03-02T07:55:18.701Z,99.99
2019-03-02T07:56:32.454Z,99.99
2019-03-02T07:57:43.654Z,99.99
2019-03-02T07:58:54.858Z,99.99
2019-03-02T08:00:08.035Z,99.99
2019-03-02T08:01:19.151Z,99.99
2019-03-02T08:02:32.134Z,99.99
2019-03-02T08:03:42.073Z,99.99
2019-03-02T08:04:52.034Z,99.99
2019-03-02T08:06:03.787Z,99.99
2019-03-02T08:07:13.770Z,99.99
2019-03-02T08:08:23.195Z,99.99
2019-03-02T08:09:32.651Z,99.99
2019-03-02T08:10:42.318Z,99.99
2019-03-02T08:11:52.369Z,99.99
2019-03-02T08:13:04.093Z,99.99
2019-03-02T08:14:16.125Z,99.99
2019-03-02T08:15:27.044Z,99.99
2019-03-02T08:16:40.196Z,99.99
2019-03-02T08:17:51.712Z,99.99
2019-03-02T08:19:03.872Z,99.99
2019-03-02T08:20:13.473Z,99.99
2019-03-02T08:21:27.359Z,99.99
2019-03-02T08:22:42.672Z,99.99
2019-03-02T08:23:53.950Z,99.99
2019-03-02T08:25:03.888Z,99.99
2019-03-02T08:26:13.833Z,99.99
2019-03-02T08:27:25.657Z,99.99
2019-03-02T08:28:42.034Z,99.99
2019-03-02T08:29:57.276Z,99.99
2019-03-02T08:31:08.900Z,99.99
2019-03-02T08:32:21.108Z,99.99
2019-03-02T08:33:33.492Z,99.99
2019-03-02T08:34:53.222Z,99.99
2019-03-02T08:36:02.677Z,99.99
2019-03-02T08:37:19.326Z,99.99
2019-03-02T08:38:32.525Z,99.99
2019-03-02T08:39:46.526Z,99.99
2019-03-02T08:41:00.200Z,99.99
2019-03-02T08:42:12.090Z,99.99
2019-03-02T08:43:22.808Z,99.99
2019-03-02T08:44:32.508Z,99.99
2019-03-02T08:45:42.444Z,99.99
2019-03-02T08:46:52.130Z,99.72
2019-03-02T08:48:01.836Z,99.91
2019-03-02T08:49:12.249Z,99.06
2019-03-02T08:50:22.234Z,99.99
2019-03-02T08:51:31.929Z,99.06
2019-03-02T08:52:41.870Z,98.68
2019-03-02T08:53:51.323Z,99.25
2019-03-02T08:55:01.271Z,99.25
2019-03-02T08:56:14.343Z,99.15
2019-03-02T08:57:25.729Z,98.96
2019-03-02T08:58:35.666Z,98.68
2019-03-02T08:59:45.610Z,98.96
2019-03-02T09:00:55.304Z,98.77
2019-03-02T09:02:05.014Z,98.77
2019-03-02T09:03:15.015Z,98.02
2019-03-02T09:04:24.708Z,97.35
2019-03-02T09:05:51.386Z,97.64
2019-03-02T09:07:03.208Z,97.54
2019-03-02T09:08:16.575Z,97.4
2019-03-02T09:09:26.534Z,97.59
2019-03-02T09:10:37.105Z,96.92
2019-03-02T09:11:48.804Z,96.97
2019-03-02T09:13:02.011Z,97.21
2019-03-02T09:14:14.513Z,96.08
2019-03-02T09:15:30.017Z,95.88
2019-03-02T09:16:41.653Z,96.17
2019-03-02T09:17:57.795Z,96.55
2019-03-02T09:19:07.898Z,96.08
2019-03-02T09:20:19.773Z,95.69
2019-03-02T09:21:29.749Z,95.98
2019-03-02T09:22:39.436Z,95.98
2019-03-02T09:23:51.538Z,95.98
2019-03-02T09:25:01.721Z,95.88
2019-03-02T09:26:11.433Z,95.5
2019-03-02T09:27:22.616Z,94.93
2019-03-02T09:28:33.048Z,95.31
2019-03-02T09:29:42.996Z,94.74
2019-03-02T09:30:54.385Z,94.37
2019-03-02T09:32:10.872Z,93.7
2019-03-02T09:33:24.663Z,94.08
2019-03-02T09:34:40.381Z,93.89
2019-03-02T09:35:57.428Z,94.37
2019-03-02T09:37:09.648Z,93.99
2019-03-02T09:38:23.444Z,94.18
2019-03-02T09:39:37.184Z,93.8
2019-03-02T09:40:49.076Z,93.7
2019-03-02T09:42:01.436Z,93.61
2019-03-02T09:43:12.800Z,93.7
2019-03-02T09:44:23.959Z,93.51
2019-03-02T09:45:35.718Z,93.04
2019-03-02T09:46:47.741Z,92.76
2019-03-02T09:47:57.756Z,93.04
2019-03-02T09:49:09.763Z,92.76
2019-03-02T09:50:21.561Z,91.99
2019-03-02T09:51:31.468Z,91.52
2019-03-02T09:52:42.866Z,91.99
2019-03-02T09:53:53.388Z,91.52
2019-03-02T09:55:03.348Z,91.52
2019-03-02T09:56:13.320Z,91.52
2019-03-02T09:57:23.724Z,91.61
2019-03-02T09:58:34.853Z,91.05
2019-03-02T09:59:47.868Z,91.33
2019-03-02T10:01:04.437Z,90.76
2019-03-02T10:02:16.942Z,91.24
2019-03-02T10:03:29.981Z,90.48
2019-03-02T10:04:41.853Z,90.67
2019-03-02T10:05:52.452Z,90.67
2019-03-02T10:07:04.581Z,90.57
2019-03-02T10:08:15.874Z,90.57
2019-03-02T10:09:27.388Z,90.1
2019-03-02T10:10:39.068Z,90
2019-03-02T10:11:48.776Z,89.34
2019-03-02T10:12:58.474Z,90
2019-03-02T10:14:08.175Z,89.81
2019-03-02T10:15:19.399Z,89.62
2019-03-02T10:16:29.224Z,89.62
2019-03-02T10:17:40.830Z,89.53
2019-03-02T10:18:52.343Z,89.62
2019-03-02T10:20:06.986Z,89.62
2019-03-02T10:21:16.930Z,89.81
2019-03-02T10:22:26.641Z,89.72
2019-03-02T10:23:41.944Z,88.96
2019-03-02T10:24:53.145Z,89.06
2019-03-02T10:26:07.214Z,89.06
2019-03-02T10:27:21.040Z,88.58
2019-03-02T10:28:33.977Z,89.06
2019-03-02T10:29:48.105Z,89.34
2019-03-02T10:30:57.909Z,89.25
2019-03-02T10:32:11.419Z,88.58
2019-03-02T10:33:22.473Z,88.48
2019-03-02T10:34:38.402Z,88.1
2019-03-02T10:35:53.166Z,88.34
2019-03-02T10:37:07.138Z,87.96
2019-03-02T10:38:21.534Z,87.96
2019-03-02T10:39:35.226Z,87.87
2019-03-02T10:40:47.249Z,88.15
2019-03-02T10:42:00.581Z,88.24
2019-03-02T10:43:13.234Z,87.77
2019-03-02T10:44:23.795Z,87.58
2019-03-02T10:45:33.746Z,87.58
2019-03-02T10:46:43.528Z,87.01
2019-03-02T10:47:54.145Z,87.2
2019-03-02T10:49:06.798Z,86.72
2019-03-02T10:50:23.202Z,86.44
2019-03-02T10:51:37.483Z,85.4
2019-03-02T10:52:48.842Z,85.49
2019-03-02T10:54:02.172Z,85.59
2019-03-02T10:55:15.676Z,85.68
2019-03-02T10:56:26.966Z,86.07
2019-03-02T10:57:36.921Z,85.87
2019-03-02T10:58:46.620Z,85.87
2019-03-02T10:59:56.565Z,84.83
2019-03-02T11:01:09.785Z,85.11
2019-03-02T11:02:22.656Z,84.36
2019-03-02T11:03:34.200Z,84.83
2019-03-02T11:04:47.001Z,84.64
2019-03-02T11:05:59.501Z,85.21
2019-03-02T11:07:12.970Z,85.21
2019-03-02T11:08:25.320Z,84.64
2019-03-02T11:09:39.636Z,84.64
2019-03-02T11:10:52.158Z,84.64
2019-03-02T11:12:06.738Z,84.26
2019-03-02T11:13:19.192Z,83.78
2019-03-02T11:14:30.981Z,84.26
2019-03-02T11:15:46.024Z,83.88
2019-03-02T11:16:57.395Z,84.26
2019-03-02T11:18:09.217Z,83.22
2019-03-02T11:19:19.202Z,83.03
2019-03-02T11:20:29.146Z,83.59
2019-03-02T11:21:38.832Z,82.93
2019-03-02T11:22:48.260Z,82.84
2019-03-02T11:24:00.016Z,82.08
2019-03-02T11:25:09.999Z,81.88
2019-03-02T11:26:19.943Z,81.7
2019-03-02T11:27:29.894Z,80.84
2019-03-02T11:28:39.831Z,80.65
2019-03-02T11:29:53.579Z,80.46
2019-03-02T11:31:03.545Z,79.8
2019-03-02T11:32:16.800Z,80.18
2019-03-02T11:33:30.851Z,80.18
2019-03-02T11:34:41.139Z,79.99
2019-03-02T11:35:51.093Z,79.52
2019-03-02T11:37:01.045Z,78.56
2019-03-02T11:38:10.987Z,78.95
2019-03-02T11:39:20.946Z,79.42
2019-03-02T11:40:33.118Z,78.95
2019-03-02T11:41:42.947Z,79.14
2019-03-02T11:42:52.642Z,78.66
2019-03-02T11:44:04.786Z,77.81
2019-03-02T11:45:14.577Z,77.52
2019-03-02T11:46:24.612Z,77.62
2019-03-02T11:47:36.538Z,76.95
2019-03-02T11:48:56.821Z,76.57
2019-03-02T11:50:06.738Z,76.67
2019-03-02T11:51:19.555Z,76.76
2019-03-02T11:52:34.929Z,76.57
2019-03-02T11:53:48.644Z,76.67
2019-03-02T11:55:06.349Z,76.48
2019-03-02T11:56:27.487Z,76.57
2019-03-02T11:57:37.463Z,76.48
2019-03-02T11:58:47.415Z,75.72
2019-03-02T11:59:59.621Z,74.87
2019-03-02T12:01:09.737Z,74.49
2019-03-02T12:02:23.758Z,74.77
2019-03-02T12:03:35.220Z,74.87
2019-03-02T12:04:48.948Z,74.39
2019-03-02T12:06:05.051Z,73.92
2019-03-02T12:07:15.528Z,73.82
2019-03-02T12:08:25.949Z,73.54
2019-03-02T12:09:35.657Z,73.44
2019-03-02T12:10:45.347Z,73.44
2019-03-02T12:11:55.299Z,73.44
2019-03-02T12:13:06.223Z,73.72
2019-03-02T12:14:16.183Z,73.16
2019-03-02T12:15:27.423Z,72.68
2019-03-02T12:16:38.217Z,72.68
2019-03-02T12:17:48.299Z,72.88
2019-03-02T12:19:00.619Z,72.44
2019-03-02T12:20:14.250Z,72.34
2019-03-02T12:21:24.592Z,72.63
2019-03-02T12:22:36.905Z,71.67
2019-03-02T12:23:46.594Z,71.96
2019-03-02T12:24:58.345Z,71.48
2019-03-02T12:26:10.914Z,72.06
2019-03-02T12:27:24.555Z,72.15
2019-03-02T12:28:36.193Z,71.48
2019-03-02T12:29:49.588Z,71.39
2019-03-02T12:30:59.243Z,71.58
2019-03-02T12:32:10.107Z,71.39
2019-03-02T12:33:23.193Z,71.01
2019-03-02T12:34:36.813Z,71.01
2019-03-02T12:35:46.793Z,71.11
2019-03-02T12:36:56.987Z,71.67
2019-03-02T12:38:11.428Z,71.48
2019-03-02T12:39:26.506Z,71.2
2019-03-02T12:40:40.022Z,71.67
2019-03-02T12:41:52.538Z,71.58
2019-03-02T12:43:07.430Z,71.39
2019-03-02T12:44:21.230Z,70.63
2019-03-02T12:45:33.572Z,70.44
2019-03-02T12:46:43.656Z,69.96
2019-03-02T12:48:02.631Z,69.96
2019-03-02T12:49:13.577Z,68.92
2019-03-02T12:50:25.685Z,69.96
2019-03-02T12:51:39.283Z,70.06
2019-03-02T12:52:51.663Z,69.87
2019-03-02T12:54:04.698Z,70.15
2019-03-02T12:55:16.275Z,70.15
2019-03-02T12:56:32.812Z,69.49
2019-03-02T12:57:47.968Z,69.68
2019-03-02T12:59:04.025Z,69.21
2019-03-02T13:00:13.993Z,69.11
2019-03-02T13:01:23.943Z,69.68
2019-03-02T13:02:36.869Z,69.3
2019-03-02T13:03:50.867Z,69.21
2019-03-02T13:05:00.348Z,69.4
2019-03-02T13:06:10.330Z,69.68
2019-03-02T13:07:20.280Z,69.78
2019-03-02T13:08:29.974Z,69.21
2019-03-02T13:09:43.436Z,69.49
2019-03-02T13:10:55.976Z,69.11
2019-03-02T13:12:08.197Z,69.59
2019-03-02T13:13:23.258Z,69.3
2019-03-02T13:14:34.912Z,69.59
2019-03-02T13:15:48.471Z,69.78
2019-03-02T13:17:03.594Z,68.83
2019-03-02T13:18:16.378Z,69.68
2019-03-02T13:19:29.281Z,69.11
2019-03-02T13:20:42.091Z,69.49
2019-03-02T13:21:54.102Z,69.78
2019-03-02T13:23:06.476Z,68.92
2019-03-02T13:24:18.760Z,69.49
2019-03-02T13:25:34.075Z,69.11
2019-03-02T13:26:45.623Z,69.68
2019-03-02T13:28:00.953Z,69.3
2019-03-02T13:29:16.371Z,70.15
2019-03-02T13:30:29.446Z,70.06
2019-03-02T13:31:43.698Z,69.78
2019-03-02T13:32:55.929Z,69.11
2019-03-02T13:34:08.006Z,69.96
2019-03-02T13:35:23.362Z,69.68
2019-03-02T13:36:33.252Z,69.3
2019-03-02T13:37:46.943Z,69.21
2019-03-02T13:39:06.294Z,69.3
2019-03-02T13:40:29.688Z,69.68
2019-03-02T13:41:42.876Z,69.21
2019-03-02T13:42:54.598Z,68.92
2019-03-02T13:44:09.878Z,69.02
2019-03-02T13:45:21.672Z,68.83
2019-03-02T13:46:34.719Z,69.02
2019-03-02T13:47:48.644Z,69.49
2019-03-02T13:49:01.683Z,69.87
2019-03-02T13:50:13.879Z,69.21
2019-03-02T13:51:29.954Z,69.78
2019-03-02T13:52:45.918Z,69.78
2019-03-02T13:54:02.971Z,70.15
2019-03-02T13:55:16.061Z,71.17
2019-03-02T13:56:30.095Z,70.98
2019-03-02T13:57:41.566Z,71.11
2019-03-02T13:58:54.817Z,71.45
2019-03-02T14:00:07.697Z,70.54
2019-03-02T14:01:21.130Z,70.98
2019-03-02T14:02:35.033Z,70.98
2019-03-02T14:03:51.009Z,71.26
2019-03-02T14:05:07.446Z,71.48
2019-03-02T14:06:20.900Z,71.11
2019-03-02T14:07:33.750Z,71.11
2019-03-02T14:08:46.014Z,70.15
2019-03-02T14:09:55.954Z,70.54
2019-03-02T14:11:05.925Z,71.2
2019-03-02T14:12:19.854Z,70.73
2019-03-02T14:13:32.806Z,70.25
2019-03-02T14:14:44.805Z,70.35
2019-03-02T14:15:59.397Z,70.44
2019-03-02T14:17:11.769Z,70.54
2019-03-02T14:18:24.243Z,70.44
2019-03-02T14:19:37.950Z,70.63
2019-03-02T14:20:53.744Z,71.01
2019-03-02T14:22:07.618Z,70.73
2019-03-02T14:23:20.020Z,70.44
2019-03-02T14:24:43.151Z,70.35
2019-03-02T14:26:00.063Z,70.44
2019-03-02T14:27:10.129Z,69.96
2019-03-02T14:28:20.087Z,70.35
2019-03-02T14:29:33.294Z,70.35
2019-03-02T14:30:45.860Z,70.35
2019-03-02T14:32:00.138Z,70.73
2019-03-02T14:33:13.097Z,70.25
2019-03-02T14:34:22.546Z,70.63
2019-03-02T14:35:32.516Z,69.78
2019-03-02T14:36:44.643Z,69.78
2019-03-02T14:37:54.363Z,69.68
2019-03-02T14:39:05.203Z,69.78
2019-03-02T14:40:17.130Z,70.06
2019-03-02T14:41:31.317Z,70.25
2019-03-02T14:42:43.366Z,69.96
2019-03-02T14:43:57.056Z,69.87
2019-03-02T14:45:09.637Z,69.96
2019-03-02T14:46:23.236Z,69.96
2019-03-02T14:47:36.475Z,69.49
2019-03-02T14:48:49.205Z,69.3
2019-03-02T14:50:01.797Z,69.59
2019-03-02T14:51:16.913Z,70.15
2019-03-02T14:52:33.176Z,70.25
2019-03-02T14:53:45.098Z,71.01
2019-03-02T14:54:56.855Z,70.73
2019-03-02T14:56:09.977Z,71.01
2019-03-02T14:57:24.621Z,70.63
2019-03-02T14:58:37.622Z,70.44
2019-03-02T14:59:50.138Z,70.25
2019-03-02T15:01:04.731Z,70.35
2019-03-02T15:02:16.525Z,69.96
2019-03-02T15:03:29.267Z,70.35
2019-03-02T15:04:45.396Z,70.06
2019-03-02T15:05:56.868Z,70.25
2019-03-02T15:07:22.150Z,70.15
2019-03-02T15:08:37.250Z,69.96
2019-03-02T15:09:49.556Z,70.25
2019-03-02T15:11:03.462Z,69.96
2019-03-02T15:12:16.023Z,69.87
2019-03-02T15:13:29.336Z,69.96
2019-03-02T15:14:42.439Z,70.25
2019-03-02T15:15:54.423Z,70.06
2019-03-02T15:17:09.013Z,70.15
2019-03-02T15:18:22.537Z,69.4
2019-03-02T15:19:55.892Z,70.06
2019-03-02T15:21:07.637Z,70.35
2019-03-02T15:22:24.120Z,70.92
2019-03-02T15:23:38.843Z,71.48
2019-03-02T15:24:52.936Z,71.58
2019-03-02T15:26:06.273Z,71.58
2019-03-02T15:27:22.197Z,71.96
2019-03-02T15:28:37.606Z,71.96
2019-03-02T15:29:50.256Z,72.25
2019-03-02T15:31:05.559Z,71.86
2019-03-02T15:32:20.175Z,72.06
2019-03-02T15:33:33.559Z,72.06
2019-03-02T15:34:53.993Z,71.96
2019-03-02T15:36:07.090Z,72.06
2019-03-02T15:37:21.010Z,71.96